< < Back
Terminal Aerodrome Forecast


Current Version              Previous Versions:   1  2  3  4  5  6  7  8  9  

Terminal Aerodrome Forecast

251
FTUS42 KFFC 011700
TAFMCN
TAF
KMCN 011720Z 0118/0218 23003KT P6SM BKN060
     FM020100 00000KT P6SM SKC
     FM021000 00000KT 4SM BR SCT012
      TEMPO 0210/0213 2SM BR OVC012
     FM021400 17004KT P6SM SCT035=



Latest METAR

135
SAUS80 KWBC 012000 RRD
MTRMCN
METAR KMCN 011953Z 13005KT 10SM SCT047 28/18 A2996 RMK AO2 SLP141
T02830178


USA.gov is the U.S. government's official web portal to all federal, state and local government web resources and services.